createdAt,value
2023-09-05T00:03:08.530Z,99.90
2023-09-05T00:08:13.025Z,99.90
2023-09-05T00:13:18.522Z,99.90
2023-09-05T00:18:22.601Z,99.90
2023-09-05T00:23:27.871Z,99.90
2023-09-05T00:28:34.408Z,99.90
2023-09-05T00:33:38.499Z,99.90
2023-09-05T00:38:43.441Z,99.90
2023-09-05T00:43:50.495Z,99.90
2023-09-05T00:48:58.247Z,99.90
2023-09-05T00:54:04.991Z,99.90
2023-09-05T00:59:12.292Z,99.90
2023-09-05T01:04:16.492Z,99.90
2023-09-05T01:09:31.848Z,99.90
2023-09-05T01:14:37.273Z,99.90
2023-09-05T01:19:42.560Z,99.90
2023-09-05T01:24:51.352Z,99.90
2023-09-05T01:29:56.968Z,99.90
2023-09-05T01:35:01.310Z,99.90
2023-09-05T01:40:08.485Z,99.90
2023-09-05T01:45:12.743Z,99.90
2023-09-05T01:50:16.859Z,99.90
2023-09-05T01:55:22.258Z,99.90
2023-09-05T02:00:26.367Z,99.90
2023-09-05T02:05:30.384Z,99.90
2023-09-05T02:10:35.788Z,99.90
2023-09-05T02:15:39.813Z,99.90
2023-09-05T02:20:43.982Z,99.90
2023-09-05T02:26:00.602Z,99.90
2023-09-05T02:31:07.753Z,99.90
2023-09-05T02:36:16.859Z,99.90
2023-09-05T02:41:22.467Z,99.90
2023-09-05T02:46:26.884Z,99.90
2023-09-05T02:51:31.016Z,99.90
2023-09-05T02:56:36.423Z,99.90
2023-09-05T03:01:40.663Z,99.90
2023-09-05T03:06:44.717Z,99.90
2023-09-05T03:11:51.435Z,99.90
2023-09-05T03:16:56.070Z,99.90
2023-09-05T03:22:00.636Z,99.90
2023-09-05T03:27:06.667Z,99.90
2023-09-05T03:32:11.312Z,99.90
2023-09-05T03:37:15.393Z,99.90
2023-09-05T03:42:20.999Z,99.90
2023-09-05T03:47:25.008Z,99.90
2023-09-05T03:52:28.955Z,99.90
2023-09-05T03:57:34.352Z,99.90
2023-09-05T04:02:38.525Z,99.90
2023-09-05T04:07:45.042Z,99.90
2023-09-05T04:12:52.443Z,99.90
2023-09-05T04:17:56.577Z,99.90
2023-09-05T04:23:00.623Z,99.90
2023-09-05T04:28:07.073Z,99.90
2023-09-05T04:33:12.422Z,99.90
2023-09-05T04:38:16.570Z,99.90
2023-09-05T04:43:22.281Z,99.90
2023-09-05T04:48:27.095Z,99.90
2023-09-05T04:53:31.479Z,99.90
2023-09-05T04:58:36.859Z,99.90
2023-09-05T05:03:41.230Z,99.90
2023-09-05T05:08:45.443Z,99.90
2023-09-05T05:13:51.106Z,99.90
2023-09-05T05:18:55.107Z,99.90
2023-09-05T05:23:59.143Z,99.90
2023-09-05T05:29:04.795Z,99.90
2023-09-05T05:34:08.994Z,99.90
2023-09-05T05:39:14.434Z,99.90
2023-09-05T05:44:19.798Z,99.90
2023-09-05T05:49:24.262Z,99.90
2023-09-05T05:54:28.845Z,99.90
2023-09-05T05:59:34.293Z,99.90
2023-09-05T06:04:38.423Z,99.90
2023-09-05T06:09:42.566Z,99.90
2023-09-05T06:14:48.291Z,99.90
2023-09-05T06:19:52.472Z,99.90
2023-09-05T06:24:56.547Z,99.90
2023-09-05T06:30:01.936Z,99.90
2023-09-05T06:35:06.975Z,99.90
2023-09-05T06:40:16.553Z,99.90
2023-09-05T06:45:22.415Z,99.90
2023-09-05T06:50:26.497Z,99.90
2023-09-05T06:55:35.866Z,99.90
2023-09-05T07:00:41.350Z,99.90
2023-09-05T07:05:59.936Z,99.90
2023-09-05T07:11:09.444Z,99.90
2023-09-05T07:16:14.871Z,99.90
2023-09-05T07:21:18.938Z,99.90
2023-09-05T07:26:23.092Z,99.90
2023-09-05T07:31:32.590Z,99.90
2023-09-05T07:36:40.787Z,99.90
2023-09-05T07:41:44.784Z,99.90
2023-09-05T07:46:50.156Z,99.90
2023-09-05T07:51:55.323Z,99.90
2023-09-05T07:56:59.745Z,99.90
2023-09-05T08:02:05.723Z,99.90
2023-09-05T08:07:09.798Z,99.90
2023-09-05T08:12:14.472Z,99.90
2023-09-05T08:17:20.056Z,99.90
2023-09-05T08:22:24.163Z,99.90
2023-09-05T08:27:30.555Z,99.90
2023-09-05T08:32:36.364Z,99.90
2023-09-05T08:37:40.594Z,99.90
2023-09-05T08:42:44.897Z,99.90
2023-09-05T08:47:50.453Z,99.90
2023-09-05T08:52:57.483Z,99.90
2023-09-05T08:58:02.887Z,99.90
2023-09-05T09:03:08.809Z,99.90
2023-09-05T09:08:13.008Z,99.90
2023-09-05T09:13:20.043Z,99.90
2023-09-05T09:18:28.406Z,99.90
2023-09-05T09:23:36.413Z,99.90
2023-09-05T09:28:41.257Z,99.90
2023-09-05T09:33:56.780Z,99.90
2023-09-05T09:39:08.834Z,99.90
2023-09-05T09:44:26.423Z,99.90
2023-09-05T09:49:33.621Z,99.90
2023-09-05T09:54:40.469Z,99.90
2023-09-05T09:59:51.735Z,98.90
2023-09-05T10:04:58.749Z,98.00
2023-09-05T10:10:03.630Z,97.50
2023-09-05T10:15:11.892Z,96.90
2023-09-05T10:20:22.724Z,96.20
2023-09-05T10:25:29.697Z,95.70
2023-09-05T10:30:43.029Z,95.00
2023-09-05T10:35:48.468Z,94.60
2023-09-05T10:40:52.533Z,93.90
2023-09-05T10:45:58.715Z,93.60
2023-09-05T10:51:12.787Z,93.20
2023-09-05T10:56:41.307Z,92.70
2023-09-05T11:01:58.221Z,92.00
2023-09-05T11:07:14.768Z,92.20
2023-09-05T11:12:20.136Z,91.90
2023-09-05T11:17:24.842Z,91.50
2023-09-05T11:22:30.412Z,91.30
2023-09-05T11:27:35.070Z,90.90
2023-09-05T11:32:40.939Z,90.50
2023-09-05T11:37:59.838Z,90.20
2023-09-05T11:43:05.601Z,89.30
2023-09-05T11:48:12.908Z,89.10
2023-09-05T11:53:21.434Z,88.50
2023-09-05T11:58:27.571Z,87.80
2023-09-05T12:03:32.797Z,87.40
2023-09-05T12:08:38.615Z,87.00
2023-09-05T12:13:45.163Z,86.60
2023-09-05T12:18:50.907Z,86.20
2023-09-05T12:23:56.863Z,85.90
2023-09-05T12:29:00.843Z,84.60
2023-09-05T12:34:04.884Z,82.40
2023-09-05T12:39:10.301Z,83.80
2023-09-05T12:44:14.374Z,83.40
2023-09-05T12:49:18.750Z,82.70
2023-09-05T12:54:24.280Z,82.00
2023-09-05T12:59:28.997Z,81.40
2023-09-05T13:04:33.156Z,81.60
2023-09-05T13:09:38.523Z,80.20
2023-09-05T13:14:43.974Z,79.60
2023-09-05T13:19:48.457Z,78.90
2023-09-05T13:24:53.873Z,78.30
2023-09-05T13:29:58.164Z,78.00
2023-09-05T13:35:02.885Z,77.50
2023-09-05T13:40:10.417Z,77.20
2023-09-05T13:45:14.605Z,77.30
2023-09-05T13:50:22.231Z,76.80
2023-09-05T13:55:28.919Z,76.50
2023-09-05T14:00:34.276Z,76.30
2023-09-05T14:05:38.944Z,75.90
2023-09-05T14:10:47.585Z,75.80
2023-09-05T14:15:51.816Z,75.70
2023-09-05T14:20:55.857Z,75.60
2023-09-05T14:26:01.369Z,75.50
2023-09-05T14:31:05.492Z,75.30
2023-09-05T14:36:11.344Z,75.40
2023-09-05T14:41:16.884Z,75.30
2023-09-05T14:46:20.958Z,75.10
2023-09-05T14:51:25.330Z,75.10
2023-09-05T14:56:31.590Z,75.40
2023-09-05T15:01:35.751Z,75.30
2023-09-05T15:06:40.168Z,75.20
2023-09-05T15:11:45.665Z,75.30
2023-09-05T15:16:49.854Z,75.40
2023-09-05T15:21:54.036Z,75.40
2023-09-05T15:26:59.838Z,75.50
2023-09-05T15:32:04.194Z,75.40
2023-09-05T15:37:08.329Z,75.50
2023-09-05T15:42:14.636Z,75.50
2023-09-05T15:47:18.709Z,75.60
2023-09-05T15:52:23.144Z,75.70
2023-09-05T15:57:28.666Z,75.80
2023-09-05T16:02:32.959Z,76.10
2023-09-05T16:07:37.055Z,76.20
2023-09-05T16:12:42.523Z,76.30
2023-09-05T16:17:46.690Z,76.40
2023-09-05T16:22:52.807Z,76.50
2023-09-05T16:27:58.438Z,76.70
2023-09-05T16:33:02.640Z,76.90
2023-09-05T16:38:07.248Z,77.00
2023-09-05T16:43:12.742Z,77.30
2023-09-05T16:48:16.949Z,77.50
2023-09-05T16:53:21.040Z,77.50
2023-09-05T16:58:26.697Z,77.60
2023-09-05T17:03:31.532Z,77.70
2023-09-05T17:08:35.637Z,77.90
2023-09-05T17:13:42.055Z,78.20
2023-09-05T17:18:46.804Z,78.40
2023-09-05T17:23:52.263Z,78.60
2023-09-05T17:28:57.722Z,79.00
2023-09-05T17:34:02.322Z,79.40
2023-09-05T17:39:08.449Z,79.80
2023-09-05T17:44:13.846Z,80.00
2023-09-05T17:49:19.999Z,80.40
2023-09-05T17:54:24.146Z,80.80
2023-09-05T17:59:29.531Z,81.70
2023-09-05T18:04:34.549Z,81.30
2023-09-05T18:09:38.972Z,81.60
2023-09-05T18:14:44.584Z,81.90
2023-09-05T18:19:48.842Z,82.30
2023-09-05T18:24:53.157Z,82.70
2023-09-05T18:29:59.742Z,83.00
2023-09-05T18:35:03.970Z,83.30
2023-09-05T18:40:09.538Z,83.70
2023-09-05T18:45:15.138Z,84.00
2023-09-05T18:50:20.569Z,84.30
2023-09-05T18:55:24.740Z,84.70
2023-09-05T19:00:30.323Z,85.10
2023-09-05T19:05:35.418Z,85.50
2023-09-05T19:10:39.898Z,85.90
2023-09-05T19:15:45.747Z,86.20
2023-09-05T19:20:55.673Z,86.70
2023-09-05T19:25:59.734Z,87.00
2023-09-05T19:31:05.147Z,87.40
2023-09-05T19:36:09.454Z,87.60
2023-09-05T19:41:15.049Z,88.00
2023-09-05T19:46:23.431Z,88.40
2023-09-05T19:51:27.632Z,88.50
2023-09-05T19:56:31.859Z,88.80
2023-09-05T20:01:37.664Z,88.80
2023-09-05T20:06:41.856Z,89.00
2023-09-05T20:11:46.034Z,89.20
2023-09-05T20:16:51.573Z,89.30
2023-09-05T20:21:57.388Z,89.60
2023-09-05T20:27:01.553Z,89.80
2023-09-05T20:32:09.934Z,90.00
2023-09-05T20:37:13.979Z,90.30
2023-09-05T20:42:18.316Z,90.10
2023-09-05T20:47:24.419Z,90.30
2023-09-05T20:52:28.482Z,90.30
2023-09-05T20:57:32.505Z,90.50
2023-09-05T21:02:38.019Z,90.60
2023-09-05T21:07:44.935Z,90.60
2023-09-05T21:12:49.236Z,90.80
2023-09-05T21:17:54.756Z,90.90
2023-09-05T21:22:59.527Z,91.00
2023-09-05T21:28:03.526Z,91.10
2023-09-05T21:33:09.078Z,91.30
2023-09-05T21:38:13.095Z,91.40
2023-09-05T21:43:17.491Z,91.50
2023-09-05T21:48:23.115Z,91.60
2023-09-05T21:53:27.137Z,91.70
2023-09-05T21:58:31.244Z,91.80
2023-09-05T22:03:36.689Z,91.80
2023-09-05T22:08:43.743Z,92.00
2023-09-05T22:13:47.825Z,92.00
2023-09-05T22:18:54.863Z,92.20
2023-09-05T22:24:00.941Z,92.20
2023-09-05T22:29:08.514Z,92.20
2023-09-05T22:34:14.934Z,92.30
2023-09-05T22:39:19.761Z,92.40
2023-09-05T22:44:26.273Z,92.50
2023-09-05T22:49:31.772Z,92.70
2023-09-05T22:54:35.900Z,92.70
2023-09-05T22:59:40.035Z,92.80
2023-09-05T23:04:45.813Z,92.90
2023-09-05T23:09:51.459Z,93.00
2023-09-05T23:14:55.948Z,93.10
2023-09-05T23:20:02.098Z,93.20
2023-09-05T23:25:07.527Z,93.30
2023-09-05T23:30:14.131Z,93.40
2023-09-05T23:35:19.564Z,93.50
2023-09-05T23:40:23.502Z,94.00
2023-09-05T23:45:27.688Z,93.70
2023-09-05T23:50:33.105Z,93.70
2023-09-05T23:55:37.331Z,93.90
